Time;durP1;ratioP1;P1;durP2;ratioP2;P2;SDS_P1;SDS_P2;PMS_P1;PMS_P2;Temp;Humidity;BMP_temperature;BMP_pressure;BME280_temperature;BME280_humidity;BME280_pressure;Samples;Min_cycle;Max_cycle;Signal;HPM_P1;HPM_P2
2023/07/06 00:01:37;;;;;;;;;;;;;;;;;;5022837;28;93371;-70
2023/07/06 00:04:02;;;;;;;;;;;;;;;;;;5019986;27;93149;-72
2023/07/06 00:06:28;;;;;;;;;;;;;;;;;;5022954;27;94802;-71
2023/07/06 00:08:53;;;;;;;;;;;;;;;;;;5025720;27;92833;-70
2023/07/06 00:11:20;;;;;;;;;;;;;;;;;;5017701;28;92632;-72
2023/07/06 00:13:45;;;;;;;;;;;;;;;;;;5023084;28;92831;-70
2023/07/06 00:16:11;;;;;;;;;;;;;;;;;;5023218;27;93052;-68
2023/07/06 00:18:36;;;;;;;;;;;;;;;;;;5020426;27;92601;-66
2023/07/06 00:21:03;;;;;;;;;;;;;;;;;;5023135;28;92989;-68
2023/07/06 00:23:28;;;;;;;;;;;;;;;;;;5023035;28;92048;-66
2023/07/06 00:25:53;;;;;;;;;;;;;;;;;;5023472;27;92946;-70
2023/07/06 00:28:26;;;;;;;;;;;;;;;;;;5019328;28;93097;-66
2023/07/06 00:33:18;;;;;;;;;;;;;;;;;;5022297;27;92589;-68
2023/07/06 00:35:44;;;;;;;;;;;;;;;;;;5022862;28;93099;-67
2023/07/06 00:38:13;;;;;;;;;;;;;;;;;;5022752;28;93726;-66
2023/07/06 00:40:40;;;;;;;;;;;;;;;;;;5022559;27;92935;-66
2023/07/06 00:43:09;;;;;;;;;;;;;;;;;;5020047;28;92445;-66
2023/07/06 00:45:34;;;;;;;;;;;;;;;;;;5022431;28;92577;-67
2023/07/06 00:48:00;;;;;;;;;;;;;;;;;;5022581;28;92604;-66
2023/07/06 00:50:28;;;;;;;;;;;;;;;;;;5025535;27;92592;-66
2023/07/06 00:53:08;;;;;;;;;;;;;;;;;;5022871;27;92772;-66
2023/07/06 00:55:36;;;;;;;;;;;;;;;;;;5034311;27;93504;-65
2023/07/06 00:58:07;;;;;;;;;;;;;;;;;;5022608;27;94444;-70
2023/07/06 01:00:34;;;;;;;;;;;;;;;;;;5022611;28;92947;-69
2023/07/06 01:03:01;;;;;;;;;;;;;;;;;;5022660;28;93360;-70
2023/07/06 01:05:28;;;;;;;;;;;;;;;;;;5022445;28;92641;-72
2023/07/06 01:07:54;;;;;;;;;;;;;;;;;;5021822;27;92795;-72
2023/07/06 01:10:20;;;;;;;;;;;;;;;;;;5020722;27;92949;-71
2023/07/06 01:12:46;;;;;;;;;;;;;;;;;;5025822;28;93376;-72
2023/07/06 01:15:12;;;;;;;;;;;;;;;;;;5021857;28;92689;-71
2023/07/06 01:17:45;;;;;;;;;;;;;;;;;;5021934;27;92253;-72
2023/07/06 01:20:21;;;;;;;;;;;;;;;;;;5018861;28;96432;-71
2023/07/06 01:23:04;;;;;;;;;;;;;;;;;;5021364;28;93061;-73
2023/07/06 01:25:47;;;;;;;;;;;;;;;;;;5021557;28;92713;-71
2023/07/06 01:28:27;;;;;;;;;;;;;;;;;;5023079;28;93070;-71
2023/07/06 01:30:55;;;;;;;;;;;;;;;;;;5022361;28;92558;-71
2023/07/06 01:33:36;;;;;;;;;;;;;;;;;;5025375;28;93168;-71
2023/07/06 01:36:05;;;;;;;;;;;;;;;;;;5024910;28;93435;-76
2023/07/06 01:38:30;;;;;;;;;;;;;;;;;;5023632;28;93092;-71
2023/07/06 01:40:57;;;;;;;;;;;;;;;;;;5021292;27;93977;-72
2023/07/06 01:43:23;;;;;;;;;;;;;;;;;;5022538;28;93174;-71
2023/07/06 01:45:48;;;;;;;;;;;;;;;;;;5020263;28;93991;-71
2023/07/06 01:48:14;;;;;;;;;;;;;;;;;;5023315;27;93167;-69
2023/07/06 01:50:55;;;;;;;;;;;;;;;;;;5022437;28;92911;-67
2023/07/06 01:53:31;;;;;;;;;;;;;;;;;;5020895;28;92624;-67
2023/07/06 01:55:59;;;;;;;;;;;;;;;;;;5018394;28;92883;-66
2023/07/06 01:58:37;;;;;;;;;;;;;;;;;;5024192;28;92690;-68
2023/07/06 02:01:10;;;;;;;;;;;;;;;;;;5018757;28;94494;-67
2023/07/06 02:03:38;;;;;;;;;;;;;;;;;;5024563;27;91890;-68
2023/07/06 02:06:04;;;;;;;;;;;;;;;;;;5023570;28;93341;-68
2023/07/06 02:08:29;;;;;;;;;;;;;;;;;;5019653;28;92895;-67
2023/07/06 02:10:55;;;;;;;;;;;;;;;;;;5020903;28;93617;-68
2023/07/06 02:13:20;;;;;;;;;;;;;;;;;;5024057;28;93395;-69
2023/07/06 02:15:45;;;;;;;;;;;;;;;;;;5022940;28;92896;-68
2023/07/06 02:18:10;;;;;;;;;;;;;;;;;;5023620;28;92264;-67
2023/07/06 02:20:36;;;;;;;;;;;;;;;;;;5025562;28;92938;-68
2023/07/06 02:23:01;;;;;;;;;;;;;;;;;;5017855;27;92846;-67
2023/07/06 02:25:26;;;;;;;;;;;;;;;;;;5021606;28;92632;-67
2023/07/06 02:27:51;;;;;;;;;;;;;;;;;;5020392;28;92083;-67
2023/07/06 02:30:17;;;;;;;;;;;;;;;;;;5021193;28;92490;-70
2023/07/06 02:32:42;;;;;;;;;;;;;;;;;;5017812;28;92670;-65
2023/07/06 02:35:09;;;;;;;;;;;;;;;;;;5019304;28;93814;-67
2023/07/06 02:37:36;;;;;;;;;;;;;;;;;;5021574;27;92848;-66
2023/07/06 02:40:01;;;;;;;;;;;;;;;;;;5020028;27;94256;-66
2023/07/06 02:42:26;;;;;;;;;;;;;;;;;;5024266;28;92784;-66
2023/07/06 02:44:52;;;;;;;;;;;;;;;;;;5021949;28;92652;-66
2023/07/06 02:47:18;;;;;;;;;;;;;;;;;;5021852;28;93697;-70
2023/07/06 02:49:43;;;;;;;;;;;;;;;;;;5023045;28;92230;-70
2023/07/06 02:52:08;;;;;;;;;;;;;;;;;;5020226;28;92562;-69
2023/07/06 02:54:33;;;;;;;;;;;;;;;;;;5023372;28;93094;-66
2023/07/06 02:57:00;;;;;;;;;;;;;;;;;;5022204;28;92665;-66
2023/07/06 02:59:26;;;;;;;;;;;;;;;;;;5019460;28;94714;-66
2023/07/06 03:01:52;;;;;;;;;;;;;;;;;;5019236;28;94189;-71
2023/07/06 03:04:17;;;;;;;;;;;;;;;;;;5023389;28;93696;-69
2023/07/06 03:06:43;;;;;;;;;;;;;;;;;;5017756;28;92886;-66
2023/07/06 03:09:09;;;;;;;;;;;;;;;;;;5023032;27;92345;-67
2023/07/06 03:11:34;;;;;;;;;;;;;;;;;;5020478;28;95563;-66
2023/07/06 03:14:02;;;;;;;;;;;;;;;;;;5023222;28;92211;-66
2023/07/06 03:16:27;;;;;;;;;;;;;;;;;;5021580;28;92221;-72
2023/07/06 03:18:53;;;;;;;;;;;;;;;;;;5022570;28;92970;-72
2023/07/06 03:21:18;;;;;;;;;;;;;;;;;;5021990;27;93482;-70
2023/07/06 03:23:43;;;;;;;;;;;;;;;;;;5025449;28;93940;-72
2023/07/06 03:26:09;;;;;;;;;;;;;;;;;;5025519;27;93938;-70
2023/07/06 03:28:35;;;;;;;;;;;;;;;;;;5019322;28;92145;-72
2023/07/06 03:31:01;;;;;;;;;;;;;;;;;;5017875;27;93941;-73
2023/07/06 03:33:26;;;;;;;;;;;;;;;;;;5022739;27;92242;-71
2023/07/06 03:35:55;;;;;;;;;;;;;;;;;;5020804;28;92792;-70
2023/07/06 03:38:25;;;;;;;;;;;;;;;;;;5018872;28;93689;-72
2023/07/06 03:40:50;;;;;;;;;;;;;;;;;;5022194;27;93001;-71
2023/07/06 03:43:16;;;;;;;;;;;;;;;;;;5021631;28;93369;-69
2023/07/06 03:45:41;;;;;;;;;;;;;;;;;;5022055;28;93000;-70
2023/07/06 03:48:07;;;;;;;;;;;;;;;;;;5021211;27;93916;-72
2023/07/06 03:50:34;;;;;;;;;;;;;;;;;;5019467;28;93841;-71
2023/07/06 03:52:59;;;;;;;;;;;;;;;;;;5019962;27;92988;-69
2023/07/06 03:55:24;;;;;;;;;;;;;;;;;;5017272;27;92199;-68
2023/07/06 03:57:50;;;;;;;;;;;;;;;;;;5018596;28;92675;-68
2023/07/06 04:00:22;;;;;;;;;;;;;;;;;;5021420;27;93027;-69
2023/07/06 04:02:49;;;;;;;;;;;;;;;;;;5015979;28;92986;-67
2023/07/06 04:05:16;;;;;;;;;;;;;;;;;;5020261;27;93025;-68
2023/07/06 04:07:42;;;;;;;;;;;;;;;;;;5022517;28;93155;-68
2023/07/06 04:10:08;;;;;;;;;;;;;;;;;;5021969;28;92632;-70
2023/07/06 04:12:37;;;;;;;;;;;;;;;;;;5020184;28;96541;-69
2023/07/06 04:15:03;;;;;;;;;;;;;;;;;;5016576;27;92423;-69
2023/07/06 04:17:29;;;;;;;;;;;;;;;;;;5019808;27;92734;-68
2023/07/06 04:19:56;;;;;;;;;;;;;;;;;;5020714;27;93012;-67
2023/07/06 04:22:21;;;;;;;;;;;;;;;;;;5017187;28;93840;-68
2023/07/06 04:24:46;;;;;;;;;;;;;;;;;;5018464;27;92781;-70
2023/07/06 04:27:12;;;;;;;;;;;;;;;;;;5022730;28;92961;-66
2023/07/06 04:29:37;;;;;;;;;;;;;;;;;;5022964;28;91832;-66
2023/07/06 04:32:03;;;;;;;;;;;;;;;;;;5013809;28;95202;-66
2023/07/06 04:34:30;;;;;;;;;;;;;;;;;;5019574;27;92331;-66
2023/07/06 04:36:55;;;;;;;;;;;;;;;;;;5019051;28;93683;-67
2023/07/06 04:39:20;;;;;;;;;;;;;;;;;;5014494;28;94382;-66
2023/07/06 04:41:45;;;;;;;;;;;;;;;;;;5019488;28;92380;-67
2023/07/06 04:44:11;;;;;;;;;;;;;;;;;;5021489;28;92782;-66
2023/07/06 04:46:36;;;;;;;;;;;;;;;;;;5021750;28;93000;-66
2023/07/06 04:49:02;;;;;;;;;;;;;;;;;;5020073;27;94328;-66
2023/07/06 04:51:28;;;;;;;;;;;;;;;;;;5024698;28;92947;-68
2023/07/06 04:53:53;;;;;;;;;;;;;;;;;;5020870;28;92454;-66
2023/07/06 04:56:18;;;;;;;;;;;;;;;;;;5020102;28;93272;-66
2023/07/06 04:58:45;;;;;;;;;;;;;;;;;;5017435;28;92491;-68
2023/07/06 05:01:10;;;;;;;;;;;;;;;;;;5017893;28;93658;-66
2023/07/06 05:03:35;;;;;;;;;;;;;;;;;;5021054;27;93297;-67
2023/07/06 05:06:03;;;;;;;;;;;;;;;;;;5020377;28;92908;-66
2023/07/06 05:08:28;;;;;;;;;;;;;;;;;;5020751;27;93000;-67
2023/07/06 05:10:54;;;;;;;;;;;;;;;;;;5027307;28;93528;-69
2023/07/06 05:13:20;;;;;;;;;;;;;;;;;;5020769;28;92689;-68
2023/07/06 05:15:46;;;;;;;;;;;;;;;;;;5022911;28;92659;-68
2023/07/06 05:18:11;;;;;;;;;;;;;;;;;;5023087;28;92444;-69
2023/07/06 05:20:37;;;;;;;;;;;;;;;;;;5025319;27;93598;-66
2023/07/06 05:23:05;;;;;;;;;;;;;;;;;;5020709;28;93236;-67
2023/07/06 05:25:31;;;;;;;;;;;;;;;;;;5023539;27;94114;-68
2023/07/06 05:27:56;;;;;;;;;;;;;;;;;;5016638;27;92693;-69
2023/07/06 05:30:21;;;;;;;;;;;;;;;;;;5036363;27;95512;-71
2023/07/06 05:32:48;;;;;;;;;;;;;;;;;;5024853;27;93133;-66
2023/07/06 05:35:15;;;;;;;;;;;;;;;;;;5022475;27;95325;-69
2023/07/06 05:37:41;;;;;;;;;;;;;;;;;;5020929;28;92639;-66
2023/07/06 05:40:08;;;;;;;;;;;;;;;;;;5023570;28;93468;-71
2023/07/06 05:42:33;;;;;;;;;;;;;;;;;;5024515;27;92690;-67
2023/07/06 05:44:59;;;;;;;;;;;;;;;;;;5024327;27;93137;-67
2023/07/06 05:47:24;;;;;;;;;;;;;;;;;;5022463;27;94210;-68
2023/07/06 05:49:49;;;;;;;;;;;;;;;;;;5021790;28;94013;-68
2023/07/06 05:52:15;;;;;;;;;;;;;;;;;;5018995;28;92945;-67
2023/07/06 05:54:40;;;;;;;;;;;;;;;;;;5025440;28;93026;-67
2023/07/06 05:57:08;;;;;;;;;;;;;;;;;;5014390;28;95403;-67
2023/07/06 05:59:33;;;;;;;;;;;;;;;;;;5020218;28;93144;-71
2023/07/06 06:01:59;;;;;;;;;;;;;;;;;;5022996;28;94149;-71
2023/07/06 06:04:25;;;;;;;;;;;;;;;;;;5018614;27;93787;-70
2023/07/06 06:06:54;;;;;;;;;;;;;;;;;;5019872;27;92571;-70
2023/07/06 06:09:19;;;;;;;;;;;;;;;;;;5020159;27;92395;-72
2023/07/06 06:11:45;;;;;;;;;;;;;;;;;;5016855;28;93769;-69
2023/07/06 06:14:10;;;;;;;;;;;;;;;;;;5016409;28;93900;-67
2023/07/06 06:16:36;;;;;;;;;;;;;;;;;;5024099;28;93296;-67
2023/07/06 06:19:02;;;;;;;;;;;;;;;;;;5019816;28;93282;-69
2023/07/06 06:21:29;;;;;;;;;;;;;;;;;;5020861;27;92996;-66
2023/07/06 06:23:55;;;;;;;;;;;;;;;;;;5023093;28;92818;-70
2023/07/06 06:26:20;;;;;;;;;;;;;;;;;;5018107;28;93095;-67
2023/07/06 06:28:47;;;;;;;;;;;;;;;;;;5021767;27;95285;-66
2023/07/06 06:31:13;;;;;;;;;;;;;;;;;;5022582;27;93066;-69
2023/07/06 06:33:38;;;;;;;;;;;;;;;;;;5018599;28;92554;-66
2023/07/06 06:36:04;;;;;;;;;;;;;;;;;;5017187;28;92793;-73
2023/07/06 06:38:34;;;;;;;;;;;;;;;;;;5024292;27;93693;-67
2023/07/06 06:41:01;;;;;;;;;;;;;;;;;;5021216;28;94689;-68
2023/07/06 06:43:27;;;;;;;;;;;;;;;;;;5023204;28;95453;-67
2023/07/06 06:45:53;;;;;;;;;;;;;;;;;;5023314;27;92865;-67
2023/07/06 06:48:18;;;;;;;;;;;;;;;;;;5022219;28;93002;-69
2023/07/06 06:50:43;;;;;;;;;;;;;;;;;;5021502;28;93317;-67
2023/07/06 06:53:08;;;;;;;;;;;;;;;;;;5020464;28;93118;-67
2023/07/06 06:55:34;;;;;;;;;;;;;;;;;;5021663;28;92687;-68
2023/07/06 06:57:59;;;;;;;;;;;;;;;;;;5014734;27;93053;-66
2023/07/06 07:00:24;;;;;;;;;;;;;;;;;;5022107;28;92597;-68
2023/07/06 07:02:50;;;;;;;;;;;;;;;;;;5021024;28;94606;-67
2023/07/06 07:05:15;;;;;;;;;;;;;;;;;;5015380;28;93077;-66
2023/07/06 07:07:42;;;;;;;;;;;;;;;;;;5022348;28;93036;-69
2023/07/06 07:10:09;;;;;;;;;;;;;;;;;;5018559;28;93543;-69
2023/07/06 07:12:36;;;;;;;;;;;;;;;;;;5019211;28;92877;-72
2023/07/06 07:15:01;;;;;;;;;;;;;;;;;;5018281;28;94600;-72
2023/07/06 07:17:27;;;;;;;;;;;;;;;;;;5019084;28;93383;-65
2023/07/06 07:19:52;;;;;;;;;;;;;;;;;;5026762;28;91971;-65
2023/07/06 07:22:18;;;;;;;;;;;;;;;;;;5017785;27;92823;-73
2023/07/06 07:24:43;;;;;;;;;;;;;;;;;;5026647;27;92844;-66
2023/07/06 07:27:11;;;;;;;;;;;;;;;;;;5017763;28;93323;-66
2023/07/06 07:29:36;;;;;;;;;;;;;;;;;;5019673;28;93170;-66
2023/07/06 07:32:02;;;;;;;;;;;;;;;;;;5015903;27;92466;-66
2023/07/06 07:34:28;;;;;;;;;;;;;;;;;;5018194;28;93745;-66
2023/07/06 07:36:53;;;;;;;;;;;;;;;;;;5017402;28;93528;-67
2023/07/06 07:39:18;;;;;;;;;;;;;;;;;;5020148;28;92734;-68
2023/07/06 07:41:45;;;;;;;;;;;;;;;;;;5024713;28;93643;-70
2023/07/06 07:44:11;;;;;;;;;;;;;;;;;;5020778;27;91932;-69
2023/07/06 07:46:36;;;;;;;;;;;;;;;;;;5021350;28;92874;-69
2023/07/06 07:49:01;;;;;;;;;;;;;;;;;;5020705;28;92910;-68
2023/07/06 07:51:27;;;;;;;;;;;;;;;;;;5022004;28;93697;-69
2023/07/06 07:53:54;;;;;;;;;;;;;;;;;;5017662;28;94408;-69
2023/07/06 07:56:20;;;;;;;;;;;;;;;;;;5021562;27;92936;-69
2023/07/06 07:58:47;;;;;;;;;;;;;;;;;;5015570;27;92238;-70
2023/07/06 08:01:14;;;;;;;;;;;;;;;;;;5027765;27;95810;-67
2023/07/06 08:03:39;;;;;;;;;;;;;;;;;;5023089;28;93264;-67
2023/07/06 08:06:07;;;;;;;;;;;;;;;;;;5017366;27;92738;-68
2023/07/06 08:08:33;;;;;;;;;;;;;;;;;;5037794;27;96700;-67
2023/07/06 08:11:03;;;;;;;;;;;;;;;;;;5021713;28;93119;-70
2023/07/06 08:13:29;;;;;;;;;;;;;;;;;;5022015;27;94018;-68
2023/07/06 08:15:54;;;;;;;;;;;;;;;;;;5019366;28;94296;-70
2023/07/06 08:18:19;;;;;;;;;;;;;;;;;;5019532;28;93044;-69
2023/07/06 08:20:44;;;;;;;;;;;;;;;;;;5027930;27;95249;-69
2023/07/06 08:23:11;;;;;;;;;;;;;;;;;;5017775;27;93031;-69
2023/07/06 08:25:37;;;;;;;;;;;;;;;;;;5018903;28;93105;-66
2023/07/06 08:28:05;;;;;;;;;;;;;;;;;;5018805;28;93037;-67
2023/07/06 08:30:30;;;;;;;;;;;;;;;;;;5020688;27;92343;-67
2023/07/06 08:32:55;;;;;;;;;;;;;;;;;;5021775;28;92792;-69
2023/07/06 08:35:20;;;;;;;;;;;;;;;;;;5019656;27;92623;-66
2023/07/06 08:37:46;;;;;;;;;;;;;;;;;;5017384;27;92813;-69
2023/07/06 08:40:17;;;;;;;;;;;;;;;;;;5019061;28;93262;-67
2023/07/06 08:42:43;;;;;;;;;;;;;;;;;;5021565;27;92782;-69
2023/07/06 08:45:14;;;;;;;;;;;;;;;;;;5021633;28;93222;-68
2023/07/06 08:47:39;;;;;;;;;;;;;;;;;;5021447;28;94069;-67
2023/07/06 08:50:07;;;;;;;;;;;;;;;;;;5019684;28;92785;-67
2023/07/06 08:52:33;;;;;;;;;;;;;;;;;;5020196;28;92672;-68
2023/07/06 08:54:58;;;;;;;;;;;;;;;;;;5020404;27;92911;-66
2023/07/06 08:57:25;;;;;;;;;;;;;;;;;;5016322;28;92051;-68
2023/07/06 08:59:51;;;;;;;;;;;;;;;;;;5017235;28;92957;-67
2023/07/06 09:02:19;;;;;;;;;;;;;;;;;;5020953;28;93655;-67
2023/07/06 09:04:46;;;;;;;;;;;;;;;;;;5019603;28;93196;-68
2023/07/06 09:07:13;;;;;;;;;;;;;;;;;;5023057;27;96232;-67
2023/07/06 09:09:46;;;;;;;;;;;;;;;;;;5018503;27;93435;-69
2023/07/06 09:12:13;;;;;;;;;;;;;;;;;;5021051;28;93710;-68
2023/07/06 09:14:42;;;;;;;;;;;;;;;;;;5012732;27;92999;-69
2023/07/06 09:17:07;;;;;;;;;;;;;;;;;;5013405;28;92678;-68
2023/07/06 09:19:33;;;;;;;;;;;;;;;;;;5022228;27;92944;-67
2023/07/06 09:22:00;;;;;;;;;;;;;;;;;;5018890;28;95638;-68
2023/07/06 09:24:28;;;;;;;;;;;;;;;;;;5016734;27;93312;-69
2023/07/06 09:26:58;;;;;;;;;;;;;;;;;;5019573;27;92616;-68
2023/07/06 09:29:29;;;;;;;;;;;;;;;;;;5021136;28;93792;-67
2023/07/06 09:32:27;;;;;;;;;;;;;;;;;;5018853;28;93267;-67
2023/07/06 09:34:59;;;;;;;;;;;;;;;;;;4983741;28;94148;-68
2023/07/06 09:37:26;;;;;;;;;;;;;;;;;;5020730;28;92661;-70
2023/07/06 09:40:01;;;;;;;;;;;;;;;;;;5017548;28;92812;-68
2023/07/06 09:42:28;;;;;;;;;;;;;;;;;;5015893;28;94168;-66
2023/07/06 09:44:53;;;;;;;;;;;;;;;;;;5020025;28;93437;-66
2023/07/06 09:47:18;;;;;;;;;;;;;;;;;;5022273;28;92384;-67
2023/07/06 09:49:49;;;;;;;;;;;;;;;;;;5018448;28;93167;-68
2023/07/06 09:52:15;;;;;;;;;;;;;;;;;;5025710;28;92538;-68
2023/07/06 09:55:02;;;;;;;;;;;;;;;;;;5023425;27;93884;-67
2023/07/06 09:57:31;;;;;;;;;;;;;;;;;;5020484;28;93072;-68
2023/07/06 09:59:58;;;;;;;;;;;;;;;;;;5021080;28;93025;-70
2023/07/06 10:02:34;;;;;;;;;;;;;;;;;;5023594;28;93227;-70
2023/07/06 10:05:14;;;;;;;;;;;;;;;;;;5022048;28;92780;-66
2023/07/06 10:07:39;;;;;;;;;;;;;;;;;;5019117;27;93254;-69
2023/07/06 10:10:21;;;;;;;;;;;;;;;;;;5024018;27;93165;-65
2023/07/06 10:12:52;;;;;;;;;;;;;;;;;;5023665;28;91990;-71
2023/07/06 10:15:17;;;;;;;;;;;;;;;;;;5022535;28;92608;-68
2023/07/06 10:17:48;;;;;;;;;;;;;;;;;;5017036;28;95205;-66
2023/07/06 10:20:18;;;;;;;;;;;;;;;;;;5023040;28;93855;-69
2023/07/06 10:22:47;;;;;;;;;;;;;;;;;;5019587;28;93781;-67
2023/07/06 10:25:27;;;;;;;;;;;;;;;;;;5019547;27;93397;-66
2023/07/06 10:27:56;;;;;;;;;;;;;;;;;;5020049;28;93028;-68
2023/07/06 10:30:31;;;;;;;;;;;;;;;;;;5016024;28;93066;-68
2023/07/06 10:32:57;;;;;;;;;;;;;;;;;;5020999;28;92993;-68
2023/07/06 10:35:26;;;;;;;;;;;;;;;;;;5017168;28;92816;-68
2023/07/06 10:37:51;;;;;;;;;;;;;;;;;;5025322;28;92140;-67
2023/07/06 10:40:26;;;;;;;;;;;;;;;;;;5019084;27;93427;-65
2023/07/06 10:43:18;;;;;;;;;;;;;;;;;;5022982;28;92866;-72
2023/07/06 10:45:49;;;;;;;;;;;;;;;;;;5013652;28;93816;-67
2023/07/06 10:48:21;;;;;;;;;;;;;;;;;;5022918;28;93309;-74
2023/07/06 10:50:49;;;;;;;;;;;;;;;;;;5015948;28;92815;-75
2023/07/06 10:53:25;;;;;;;;;;;;;;;;;;5024212;28;92176;-74
2023/07/06 10:56:02;;;;;;;;;;;;;;;;;;5023208;27;95317;-68
2023/07/06 10:58:36;;;;;;;;;;;;;;;;;;5020829;28;92688;-75
2023/07/06 11:01:09;;;;;;;;;;;;;;;;;;5023318;28;92913;-76
2023/07/06 11:03:34;;;;;;;;;;;;;;;;;;5018459;28;93070;-70
2023/07/06 11:06:16;;;;;;;;;;;;;;;;;;5020141;28;92726;-75
2023/07/06 11:08:58;;;;;;;;;;;;;;;;;;5018513;28;92915;-68
2023/07/06 11:11:26;;;;;;;;;;;;;;;;;;5018743;27;97691;-70
2023/07/06 11:13:53;;;;;;;;;;;;;;;;;;5019248;27;93143;-72
2023/07/06 11:16:22;;;;;;;;;;;;;;;;;;5018181;27;93804;-74
2023/07/06 11:18:51;;;;;;;;;;;;;;;;;;5020153;27;92918;-75
2023/07/06 11:21:16;;;;;;;;;;;;;;;;;;5018480;28;93821;-73
2023/07/06 11:23:48;;;;;;;;;;;;;;;;;;5013275;27;93141;-75
2023/07/06 11:26:32;;;;;;;;;;;;;;;;;;5021206;28;92233;-73
2023/07/06 11:28:57;;;;;;;;;;;;;;;;;;5018125;28;92547;-77
2023/07/06 11:31:28;;;;;;;;;;;;;;;;;;5019428;28;94485;-76
2023/07/06 11:33:58;;;;;;;;;;;;;;;;;;5019838;28;93315;-74
2023/07/06 11:36:32;;;;;;;;;;;;;;;;;;5020114;28;94614;-75
2023/07/06 11:39:15;;;;;;;;;;;;;;;;;;5018867;27;95114;-75
2023/07/06 11:41:43;;;;;;;;;;;;;;;;;;5021653;28;92763;-76
2023/07/06 11:44:16;;;;;;;;;;;;;;;;;;5024983;28;93015;-74
2023/07/06 11:46:55;;;;;;;;;;;;;;;;;;5019971;28;92848;-76
2023/07/06 11:49:40;;;;;;;;;;;;;;;;;;5017941;28;95559;-74
2023/07/06 11:52:09;;;;;;;;;;;;;;;;;;5017808;28;92876;-73
2023/07/06 11:54:51;;;;;;;;;;;;;;;;;;5019649;28;92609;-72
2023/07/06 11:57:41;;;;;;;;;;;;;;;;;;5015486;27;92488;-72
2023/07/06 12:00:37;;;;;;;;;;;;;;;;;;5015749;27;95544;-72
2023/07/06 12:03:06;;;;;;;;;;;;;;;;;;5015111;28;93245;-75
2023/07/06 12:05:38;;;;;;;;;;;;;;;;;;5016076;27;93448;-76
2023/07/06 12:08:23;;;;;;;;;;;;;;;;;;5020529;28;93498;-74
2023/07/06 12:10:51;;;;;;;;;;;;;;;;;;5017435;28;93168;-75
2023/07/06 12:13:36;;;;;;;;;;;;;;;;;;5018946;28;93563;-72
2023/07/06 12:16:05;;;;;;;;;;;;;;;;;;5011366;28;94203;-74
2023/07/06 12:18:33;;;;;;;;;;;;;;;;;;5018385;27;92902;-75
2023/07/06 12:20:59;;;;;;;;;;;;;;;;;;5035806;27;94877;-75
2023/07/06 12:23:24;;;;;;;;;;;;;;;;;;5020258;28;94049;-74
2023/07/06 12:25:52;;;;;;;;;;;;;;;;;;5015332;27;95655;-75
2023/07/06 12:28:18;;;;;;;;;;;;;;;;;;5014471;28;94622;-76
2023/07/06 12:30:43;;;;;;;;;;;;;;;;;;5020324;28;92766;-71
2023/07/06 12:33:13;;;;;;;;;;;;;;;;;;5020789;27;92900;-76
2023/07/06 12:35:40;;;;;;;;;;;;;;;;;;5021259;27;93503;-75
2023/07/06 12:38:09;;;;;;;;;;;;;;;;;;5021351;28;92641;-77
2023/07/06 12:40:35;;;;;;;;;;;;;;;;;;5020722;27;94557;-75
2023/07/06 12:43:00;;;;;;;;;;;;;;;;;;5021444;27;93985;-78
2023/07/06 12:45:29;;;;;;;;;;;;;;;;;;5017298;27;93132;-72
2023/07/06 12:47:58;;;;;;;;;;;;;;;;;;5018671;28;93218;-77
2023/07/06 12:50:29;;;;;;;;;;;;;;;;;;5017018;28;92922;-75
2023/07/06 12:53:05;;;;;;;;;;;;;;;;;;5017495;28;93550;-70
2023/07/06 12:55:33;;;;;;;;;;;;;;;;;;5020257;27;93876;-76
2023/07/06 12:58:13;;;;;;;;;;;;;;;;;;5021657;28;92518;-76
2023/07/06 13:00:38;;;;;;;;;;;;;;;;;;5020324;27;94055;-69
2023/07/06 13:03:03;;;;;;;;;;;;;;;;;;5017404;28;93135;-70
2023/07/06 13:05:31;;;;;;;;;;;;;;;;;;5013968;28;92695;-73
2023/07/06 13:07:56;;;;;;;;;;;;;;;;;;5013187;28;93741;-72
2023/07/06 13:10:23;;;;;;;;;;;;;;;;;;5015756;28;92243;-73
2023/07/06 13:12:50;;;;;;;;;;;;;;;;;;5016635;28;92738;-74
2023/07/06 13:15:18;;;;;;;;;;;;;;;;;;5023463;27;92851;-72
2023/07/06 13:17:48;;;;;;;;;;;;;;;;;;5016334;28;95312;-73
2023/07/06 13:20:13;;;;;;;;;;;;;;;;;;5018524;28;92745;-74
2023/07/06 13:22:38;;;;;;;;;;;;;;;;;;5016100;28;93627;-74
2023/07/06 13:25:04;;;;;;;;;;;;;;;;;;5024485;28;92823;-78
2023/07/06 13:27:29;;;;;;;;;;;;;;;;;;5023657;27;93396;-78
2023/07/06 13:29:54;;;;;;;;;;;;;;;;;;5023657;28;92440;-76
2023/07/06 13:32:20;;;;;;;;;;;;;;;;;;5023740;28;92673;-77
2023/07/06 13:34:46;;;;;;;;;;;;;;;;;;5027379;27;92059;-78
2023/07/06 13:37:17;;;;;;;;;;;;;;;;;;5020942;27;92815;-79
2023/07/06 13:39:42;;;;;;;;;;;;;;;;;;5021766;28;93333;-75
2023/07/06 13:42:09;;;;;;;;;;;;;;;;;;5021718;28;93863;-75
2023/07/06 13:44:34;;;;;;;;;;;;;;;;;;5021226;28;94634;-75
2023/07/06 13:47:02;;;;;;;;;;;;;;;;;;5023257;28;94048;-73
2023/07/06 13:49:28;;;;;;;;;;;;;;;;;;5019064;27;92451;-77
2023/07/06 13:51:54;;;;;;;;;;;;;;;;;;5013868;27;93607;-73
2023/07/06 13:54:23;;;;;;;;;;;;;;;;;;5020505;28;93971;-76
2023/07/06 13:56:49;;;;;;;;;;;;;;;;;;5022317;28;93580;-74
2023/07/06 13:59:14;;;;;;;;;;;;;;;;;;5023425;27;92099;-79
2023/07/06 14:01:45;;;;;;;;;;;;;;;;;;5022947;27;92990;-78
2023/07/06 14:04:11;;;;;;;;;;;;;;;;;;5021703;27;92757;-72
2023/07/06 14:06:36;;;;;;;;;;;;;;;;;;5024435;27;94058;-76
2023/07/06 14:09:02;;;;;;;;;;;;;;;;;;5021742;28;93497;-76
2023/07/06 14:11:27;;;;;;;;;;;;;;;;;;5021859;28;94464;-71
2023/07/06 14:13:53;;;;;;;;;;;;;;;;;;5018624;27;93010;-76
2023/07/06 14:16:18;;;;;;;;;;;;;;;;;;5019709;28;92689;-78
2023/07/06 14:18:44;;;;;;;;;;;;;;;;;;5021130;28;93294;-78
2023/07/06 14:21:11;;;;;;;;;;;;;;;;;;5020734;28;94646;-71
2023/07/06 14:23:36;;;;;;;;;;;;;;;;;;5018182;28;93502;-77
2023/07/06 14:26:02;;;;;;;;;;;;;;;;;;5019562;27;93144;-77
2023/07/06 14:28:27;;;;;;;;;;;;;;;;;;5018210;28;94350;-75
2023/07/06 14:30:55;;;;;;;;;;;;;;;;;;5020166;27;93510;-70
2023/07/06 14:33:21;;;;;;;;;;;;;;;;;;5018882;28;93958;-76
2023/07/06 14:35:46;;;;;;;;;;;;;;;;;;5013278;28;94226;-73
2023/07/06 14:38:12;;;;;;;;;;;;;;;;;;5019964;28;92326;-73
2023/07/06 14:40:38;;;;;;;;;;;;;;;;;;5024997;28;93041;-78
2023/07/06 14:43:04;;;;;;;;;;;;;;;;;;5018830;28;93589;-78
2023/07/06 14:45:30;;;;;;;;;;;;;;;;;;5035927;27;94539;-75
2023/07/06 14:47:55;;;;;;;;;;;;;;;;;;5020909;28;91540;-76
2023/07/06 14:50:21;;;;;;;;;;;;;;;;;;5022032;28;93250;-78
2023/07/06 14:52:46;;;;;;;;;;;;;;;;;;5018896;28;93638;-77
2023/07/06 14:55:12;;;;;;;;;;;;;;;;;;5019613;28;93774;-70
2023/07/06 14:57:38;;;;;;;;;;;;;;;;;;5016985;28;94758;-72
2023/07/06 15:00:05;;;;;;;;;;;;;;;;;;5021525;28;93724;-72
2023/07/06 15:02:30;;;;;;;;;;;;;;;;;;5023966;28;92663;-68
2023/07/06 15:04:55;;;;;;;;;;;;;;;;;;5020591;27;92856;-70
2023/07/06 15:07:21;;;;;;;;;;;;;;;;;;5022320;28;92942;-70
2023/07/06 15:09:47;;;;;;;;;;;;;;;;;;5022369;27;93056;-73
2023/07/06 15:12:12;;;;;;;;;;;;;;;;;;5017035;28;94998;-76
2023/07/06 15:14:37;;;;;;;;;;;;;;;;;;5015464;28;92670;-74
2023/07/06 15:17:03;;;;;;;;;;;;;;;;;;5019049;28;92724;-73
2023/07/06 15:19:28;;;;;;;;;;;;;;;;;;5022645;27;93717;-70
2023/07/06 15:21:54;;;;;;;;;;;;;;;;;;5021396;28;92889;-68
2023/07/06 15:24:19;;;;;;;;;;;;;;;;;;5024276;28;93489;-67
2023/07/06 15:26:45;;;;;;;;;;;;;;;;;;5018571;28;92388;-77
2023/07/06 15:29:10;;;;;;;;;;;;;;;;;;5018164;28;93086;-80
2023/07/06 15:31:35;;;;;;;;;;;;;;;;;;5013242;28;93424;-71
2023/07/06 15:34:00;;;;;;;;;;;;;;;;;;5014577;28;92658;-75
2023/07/06 15:36:26;;;;;;;;;;;;;;;;;;5019151;28;92483;-77
2023/07/06 15:38:51;;;;;;;;;;;;;;;;;;5020889;28;92224;-76
2023/07/06 15:41:16;;;;;;;;;;;;;;;;;;5018654;28;93177;-74
2023/07/06 15:43:42;;;;;;;;;;;;;;;;;;5035447;27;94168;-78
2023/07/06 15:46:07;;;;;;;;;;;;;;;;;;5021847;28;92282;-78
2023/07/06 15:48:33;;;;;;;;;;;;;;;;;;5019788;27;92796;-77
2023/07/06 15:50:58;;;;;;;;;;;;;;;;;;5018078;28;92859;-73
2023/07/06 15:53:24;;;;;;;;;;;;;;;;;;5017851;28;93247;-73
2023/07/06 15:55:55;;;;;;;;;;;;;;;;;;5018538;27;92818;-76
2023/07/06 15:58:21;;;;;;;;;;;;;;;;;;5017997;27;94518;-74
2023/07/06 16:00:49;;;;;;;;;;;;;;;;;;5022272;28;91949;-75
2023/07/06 16:03:14;;;;;;;;;;;;;;;;;;5018103;28;92680;-72
2023/07/06 16:05:42;;;;;;;;;;;;;;;;;;5015832;28;95724;-74
2023/07/06 16:08:08;;;;;;;;;;;;;;;;;;5018440;28;93858;-70
2023/07/06 16:10:37;;;;;;;;;;;;;;;;;;5016331;28;94164;-73
2023/07/06 16:13:03;;;;;;;;;;;;;;;;;;5021506;28;93660;-75
2023/07/06 16:15:28;;;;;;;;;;;;;;;;;;5021746;28;93831;-74
2023/07/06 16:17:53;;;;;;;;;;;;;;;;;;5022185;27;94086;-75
2023/07/06 16:20:18;;;;;;;;;;;;;;;;;;5023308;27;93230;-78
2023/07/06 16:22:44;;;;;;;;;;;;;;;;;;5018855;28;92606;-77
2023/07/06 16:25:09;;;;;;;;;;;;;;;;;;5019895;27;92594;-72
2023/07/06 16:27:34;;;;;;;;;;;;;;;;;;5020987;28;93170;-75
2023/07/06 16:29:59;;;;;;;;;;;;;;;;;;5021829;28;93152;-72
2023/07/06 16:32:25;;;;;;;;;;;;;;;;;;5020332;27;94450;-75
2023/07/06 16:34:50;;;;;;;;;;;;;;;;;;5019774;28;94486;-74
2023/07/06 16:37:15;;;;;;;;;;;;;;;;;;5021753;27;93081;-74
2023/07/06 16:39:40;;;;;;;;;;;;;;;;;;5017092;28;92627;-76
2023/07/06 16:42:06;;;;;;;;;;;;;;;;;;5021125;28;93247;-73
2023/07/06 16:44:31;;;;;;;;;;;;;;;;;;5020612;28;93223;-74
2023/07/06 16:46:56;;;;;;;;;;;;;;;;;;5016414;28;92449;-74
2023/07/06 16:49:21;;;;;;;;;;;;;;;;;;5020002;28;93118;-74
2023/07/06 16:51:46;;;;;;;;;;;;;;;;;;5014431;27;92943;-73